createdAt,value
2023-03-24T00:01:22.186Z,5.28
2023-03-24T00:03:54.452Z,5.07
2023-03-24T00:06:26.978Z,5.45
2023-03-24T00:09:00.750Z,5.18
2023-03-24T00:11:36.756Z,5.45
2023-03-24T00:14:12.372Z,5.65
2023-03-24T00:16:45.551Z,5.50
2023-03-24T00:19:18.417Z,5.03
2023-03-24T00:21:50.604Z,5.20
2023-03-24T00:24:23.219Z,4.82
2023-03-24T00:26:57.817Z,4.97
2023-03-24T00:29:30.637Z,5.47
2023-03-24T00:32:02.771Z,4.93
2023-03-24T00:34:38.679Z,5.28
2023-03-24T00:37:10.922Z,4.97
2023-03-24T00:39:43.752Z,5.28
2023-03-24T00:42:16.739Z,4.95
2023-03-24T00:44:48.903Z,4.78
2023-03-24T00:47:26.320Z,5.45
2023-03-24T00:50:02.185Z,5.10
2023-03-24T00:52:34.873Z,5.38
2023-03-24T00:55:07.206Z,5.40
2023-03-24T00:57:40.924Z,5.30
2023-03-24T01:02:54.138Z,5.75
2023-03-24T01:05:30.611Z,5.25
2023-03-24T01:08:03.878Z,5.35
2023-03-24T01:10:50.391Z,5.22
2023-03-24T01:13:26.483Z,6.10
2023-03-24T01:15:58.745Z,5.38
2023-03-24T01:18:31.244Z,5.72
2023-03-24T01:21:03.569Z,5.78
2023-03-24T01:23:36.469Z,5.77
2023-03-24T01:26:10.760Z,5.63
2023-03-24T01:28:44.127Z,6.32
2023-03-24T01:31:16.863Z,5.88
2023-03-24T01:33:49.046Z,5.45
2023-03-24T01:36:21.232Z,5.70
2023-03-24T01:38:53.825Z,6.28
2023-03-24T01:41:30.554Z,6.05
2023-03-24T01:44:23.129Z,5.72
2023-03-24T01:46:57.742Z,5.70
2023-03-24T01:49:47.438Z,5.22
2023-03-24T01:52:24.874Z,5.60
2023-03-24T01:55:08.201Z,4.95
2023-03-24T01:57:44.224Z,5.57
2023-03-24T02:00:18.463Z,5.28
2023-03-24T02:03:21.159Z,5.38
2023-03-24T02:06:03.763Z,5.22
2023-03-24T02:08:50.184Z,4.75
2023-03-24T02:11:27.224Z,5.30
2023-03-24T02:14:05.426Z,4.35
2023-03-24T02:19:38.560Z,5.47
2023-03-24T02:22:47.328Z,5.18
2023-03-24T02:25:37.979Z,5.70
2023-03-24T02:28:34.256Z,5.72
2023-03-24T02:31:12.436Z,5.10
2023-03-24T02:34:04.798Z,5.68
2023-03-24T02:36:37.218Z,5.70
2023-03-24T02:39:32.271Z,5.53
2023-03-24T02:42:16.948Z,5.35
2023-03-24T02:44:57.283Z,5.45
2023-03-24T02:48:05.299Z,5.43
2023-03-24T02:50:51.379Z,4.97
2023-03-24T02:53:52.715Z,5.03
2023-03-24T02:56:34.383Z,5.03
2023-03-24T02:59:56.675Z,5.40
2023-03-24T03:02:59.539Z,5.22
2023-03-24T03:05:48.390Z,5.00
2023-03-24T03:08:22.847Z,5.38
2023-03-24T03:10:57.775Z,5.20
2023-03-24T03:13:40.998Z,5.32
2023-03-24T03:16:38.732Z,5.65
2023-03-24T03:19:22.367Z,5.00
2023-03-24T03:21:56.835Z,5.10
2023-03-24T03:24:35.552Z,5.47
2023-03-24T03:27:18.840Z,5.32
2023-03-24T03:29:56.151Z,4.85
2023-03-24T03:32:32.312Z,5.25
2023-03-24T03:35:14.857Z,5.15
2023-03-24T03:38:01.249Z,4.82
2023-03-24T03:40:50.048Z,4.90
2023-03-24T03:43:26.929Z,5.03
2023-03-24T03:46:01.270Z,4.90
2023-03-24T03:48:40.986Z,5.50
2023-03-24T03:54:11.522Z,5.40
2023-03-24T03:56:44.407Z,4.90
2023-03-24T03:59:35.641Z,5.88
2023-03-24T04:02:28.474Z,5.70
2023-03-24T04:05:11.257Z,5.40
2023-03-24T04:07:58.339Z,5.57
2023-03-24T04:11:14.833Z,5.70
2023-03-24T04:14:19.207Z,5.75
2023-03-24T04:17:41.197Z,5.30
2023-03-24T04:20:25.002Z,6.57
2023-03-24T04:23:26.869Z,5.72
2023-03-24T04:26:26.522Z,5.38
2023-03-24T04:29:20.808Z,5.72
2023-03-24T04:32:19.722Z,5.85
2023-03-24T04:35:01.969Z,5.53
2023-03-24T04:38:23.488Z,5.13
2023-03-24T04:41:05.699Z,5.00
2023-03-24T04:43:39.138Z,5.13
2023-03-24T04:46:18.171Z,5.55
2023-03-24T04:49:13.458Z,5.57
2023-03-24T04:51:47.803Z,5.20
2023-03-24T04:54:25.900Z,5.13
2023-03-24T04:57:06.448Z,5.80
2023-03-24T04:59:44.735Z,5.70
2023-03-24T05:02:17.475Z,5.10
2023-03-24T05:05:01.743Z,5.75
2023-03-24T05:07:42.669Z,6.50
2023-03-24T05:10:18.385Z,6.47
2023-03-24T05:12:56.811Z,6.25
2023-03-24T05:15:32.052Z,6.80
2023-03-24T05:18:23.182Z,5.60
2023-03-24T05:20:55.554Z,6.50
2023-03-24T05:23:28.144Z,6.97
2023-03-24T05:26:02.323Z,7.10
2023-03-24T05:28:37.640Z,7.72
2023-03-24T05:31:10.020Z,7.53
2023-03-24T05:33:49.983Z,7.80
2023-03-24T05:36:25.209Z,8.35
2023-03-24T05:39:03.412Z,8.00
2023-03-24T05:41:58.536Z,8.65
2023-03-24T05:44:31.204Z,7.85
2023-03-24T05:47:16.468Z,7.97
2023-03-24T05:49:50.622Z,9.05
2023-03-24T05:52:23.009Z,8.15
2023-03-24T05:54:58.624Z,7.18
2023-03-24T05:57:34.978Z,7.78
2023-03-24T06:00:32.046Z,7.47
2023-03-24T06:03:14.362Z,7.70
2023-03-24T06:05:51.474Z,7.40
2023-03-24T06:08:24.804Z,6.95
2023-03-24T06:13:33.462Z,7.45
2023-03-24T06:16:06.873Z,7.43
2023-03-24T06:18:55.768Z,6.72
2023-03-24T06:21:51.411Z,6.55
2023-03-24T06:24:28.106Z,7.07
2023-03-24T06:27:09.256Z,7.38
2023-03-24T06:29:42.791Z,7.55
2023-03-24T06:32:19.632Z,8.00
2023-03-24T06:34:54.966Z,6.88
2023-03-24T06:37:51.853Z,6.97
2023-03-24T06:40:24.667Z,6.90
2023-03-24T06:43:01.848Z,6.88
2023-03-24T06:45:35.570Z,7.22
2023-03-24T06:48:08.699Z,7.20
2023-03-24T06:50:41.406Z,8.63
2023-03-24T06:53:15.900Z,7.15
2023-03-24T06:55:48.920Z,9.93
2023-03-24T07:01:16.880Z,8.05
2023-03-24T07:03:58.816Z,7.95
2023-03-24T07:07:10.812Z,7.50
2023-03-24T07:12:20.488Z,7.85
2023-03-24T07:14:56.053Z,8.15
2023-03-24T07:17:28.471Z,7.60
2023-03-24T07:20:17.970Z,8.18
2023-03-24T07:22:58.950Z,8.20
2023-03-24T07:25:31.158Z,8.50
2023-03-24T07:28:11.397Z,7.32
2023-03-24T07:30:45.102Z,11.07
2023-03-24T07:33:18.339Z,10.02
2023-03-24T07:35:54.913Z,9.35
2023-03-24T07:38:27.621Z,9.30
2023-03-24T07:41:05.066Z,10.48
2023-03-24T07:43:41.983Z,8.98
2023-03-24T07:46:24.834Z,8.15
2023-03-24T07:49:03.184Z,10.95
2023-03-24T07:56:59.422Z,9.70
2023-03-24T07:59:32.106Z,9.60
2023-03-24T08:02:18.618Z,8.88
2023-03-24T08:05:06.118Z,11.25
2023-03-24T08:07:45.651Z,9.98
2023-03-24T08:10:18.406Z,9.85
2023-03-24T08:12:51.358Z,10.13
2023-03-24T08:15:24.503Z,11.38
2023-03-24T08:17:57.335Z,10.85
2023-03-24T08:20:29.831Z,11.40
2023-03-24T08:23:05.122Z,11.70
2023-03-24T08:25:37.666Z,11.23
2023-03-24T08:28:10.843Z,9.27
2023-03-24T08:30:44.031Z,8.75
2023-03-24T08:33:17.097Z,7.90
2023-03-24T08:35:49.870Z,7.55
2023-03-24T08:38:23.448Z,8.05
2023-03-24T08:40:56.183Z,7.95
2023-03-24T08:43:30.438Z,7.57
2023-03-24T08:46:03.629Z,7.28
2023-03-24T08:48:38.273Z,7.25
2023-03-24T08:51:15.720Z,7.43
2023-03-24T08:53:48.001Z,7.05
2023-03-24T08:56:21.647Z,6.88
2023-03-24T08:58:54.178Z,6.85
2023-03-24T09:01:26.487Z,6.93
2023-03-24T09:03:58.834Z,6.35
2023-03-24T09:06:32.849Z,5.85
2023-03-24T09:09:05.141Z,5.75
2023-03-24T09:11:38.695Z,5.65
2023-03-24T09:14:11.632Z,5.38
2023-03-24T09:16:44.280Z,4.90
2023-03-24T09:19:17.526Z,4.63
2023-03-24T09:21:50.088Z,3.85
2023-03-24T09:24:22.235Z,4.05
2023-03-24T09:26:54.750Z,3.60
2023-03-24T09:29:26.983Z,4.32
2023-03-24T09:31:59.393Z,3.25
2023-03-24T09:34:32.916Z,4.13
2023-03-24T09:37:05.929Z,2.95
2023-03-24T09:39:38.178Z,3.45
2023-03-24T09:42:23.338Z,3.42
2023-03-24T09:44:58.901Z,3.67
2023-03-24T09:47:47.331Z,3.10
2023-03-24T09:50:24.966Z,3.53
2023-03-24T09:53:07.551Z,4.30
2023-03-24T09:55:41.739Z,3.22
2023-03-24T09:58:14.179Z,3.58
2023-03-24T10:00:47.147Z,3.30
2023-03-24T10:03:23.411Z,3.58
2023-03-24T10:06:08.048Z,3.70
2023-03-24T10:08:48.019Z,3.30
2023-03-24T10:12:02.737Z,4.00
2023-03-24T10:14:50.263Z,3.95
2023-03-24T10:17:25.767Z,3.95
2023-03-24T10:20:07.849Z,4.07
2023-03-24T10:23:07.661Z,4.43
2023-03-24T10:25:51.930Z,4.18
2023-03-24T10:28:49.647Z,4.47
2023-03-24T10:31:32.638Z,4.47
2023-03-24T10:34:06.402Z,4.53
2023-03-24T10:39:19.905Z,4.70
2023-03-24T10:41:55.027Z,4.55
2023-03-24T10:44:28.669Z,4.60
2023-03-24T10:49:35.918Z,4.60
2023-03-24T10:52:10.485Z,4.57
2023-03-24T10:54:54.960Z,4.40
2023-03-24T10:57:29.477Z,4.03
2023-03-24T11:00:19.645Z,4.20
2023-03-24T11:02:57.727Z,4.03
2023-03-24T11:05:33.870Z,3.85
2023-03-24T11:08:17.933Z,3.38
2023-03-24T11:13:34.050Z,4.35
2023-03-24T11:19:03.880Z,3.40
2023-03-24T11:21:37.387Z,3.20
2023-03-24T11:24:13.056Z,3.05
2023-03-24T11:26:50.505Z,3.20
2023-03-24T11:29:25.990Z,3.47
2023-03-24T11:32:01.848Z,3.45
2023-03-24T11:34:42.473Z,3.50
2023-03-24T11:37:22.500Z,3.60
2023-03-24T11:40:13.268Z,4.15
2023-03-24T11:43:00.346Z,3.95
2023-03-24T11:45:45.352Z,4.45
2023-03-24T11:48:32.577Z,3.72
2023-03-24T11:51:06.119Z,3.88
2023-03-24T11:53:51.883Z,4.45
2023-03-24T11:56:28.192Z,3.80
2023-03-24T11:59:23.662Z,3.78
2023-03-24T12:02:02.392Z,3.55
2023-03-24T12:04:43.542Z,3.92
2023-03-24T12:07:28.898Z,4.35
2023-03-24T12:10:19.927Z,3.85
2023-03-24T12:13:22.037Z,5.10
2023-03-24T12:16:14.315Z,4.30
2023-03-24T12:19:00.476Z,3.88
2023-03-24T12:21:51.939Z,3.33
2023-03-24T12:24:42.378Z,3.75
2023-03-24T12:27:36.523Z,4.15
2023-03-24T12:30:19.418Z,4.00
2023-03-24T12:33:18.211Z,4.80
2023-03-24T12:36:14.353Z,4.28
2023-03-24T12:39:09.895Z,4.78
2023-03-24T12:42:11.105Z,3.92
2023-03-24T12:45:04.902Z,5.38
2023-03-24T12:50:54.430Z,5.45
2023-03-24T12:53:41.995Z,5.10
2023-03-24T12:56:21.268Z,5.10
2023-03-24T12:59:04.626Z,5.18
2023-03-24T13:01:52.903Z,5.63
2023-03-24T13:04:35.464Z,6.00
2023-03-24T13:07:15.736Z,5.30
2023-03-24T13:10:20.650Z,5.50
2023-03-24T13:13:02.613Z,5.47
2023-03-24T13:16:09.977Z,6.18
2023-03-24T13:18:51.931Z,5.50
2023-03-24T13:21:26.732Z,6.03
2023-03-24T13:23:59.501Z,5.82
2023-03-24T13:26:38.991Z,6.28
2023-03-24T13:29:41.831Z,5.95
2023-03-24T13:32:24.102Z,6.47
2023-03-24T13:35:03.122Z,5.88
2023-03-24T13:37:39.172Z,6.25
2023-03-24T13:40:22.111Z,4.68
2023-03-24T13:42:57.330Z,5.10
2023-03-24T13:45:43.630Z,5.53
2023-03-24T13:48:38.880Z,3.03
2023-03-24T13:51:51.336Z,2.80
2023-03-24T13:54:27.510Z,2.85
2023-03-24T13:57:13.148Z,2.63
2023-03-24T14:00:19.074Z,2.22
2023-03-24T14:02:55.996Z,2.60
2023-03-24T14:05:59.296Z,2.22
2023-03-24T14:08:53.645Z,2.20
2023-03-24T14:11:32.310Z,1.95
2023-03-24T14:14:14.157Z,2.00
2023-03-24T14:17:16.931Z,1.90
2023-03-24T14:20:05.704Z,2.10
2023-03-24T14:22:52.038Z,2.30
2023-03-24T14:25:25.723Z,2.20
2023-03-24T14:31:10.359Z,1.92
2023-03-24T14:33:54.827Z,1.60
2023-03-24T14:36:43.735Z,1.60
2023-03-24T14:39:41.819Z,1.50
2023-03-24T14:42:32.502Z,1.30
2023-03-24T14:45:33.206Z,1.48
2023-03-24T14:48:21.517Z,1.70
2023-03-24T14:50:55.241Z,1.30
2023-03-24T14:53:27.506Z,1.08
2023-03-24T14:56:00.303Z,1.15
2023-03-24T14:58:42.992Z,1.40
2023-03-24T15:01:17.021Z,1.05
2023-03-24T15:04:02.005Z,1.20
2023-03-24T15:06:47.167Z,1.83
2023-03-24T15:09:19.615Z,1.90
2023-03-24T15:11:52.305Z,1.58
2023-03-24T15:14:26.091Z,2.10
2023-03-24T15:17:03.648Z,2.20
2023-03-24T15:19:36.347Z,2.17
2023-03-24T15:22:13.425Z,2.38
2023-03-24T15:24:51.446Z,2.35
2023-03-24T15:27:30.324Z,1.65
2023-03-24T15:30:03.093Z,1.58
2023-03-24T15:32:40.128Z,1.02
2023-03-24T15:35:18.647Z,1.30
2023-03-24T15:37:53.282Z,1.27
2023-03-24T15:40:31.261Z,1.10
2023-03-24T15:43:18.265Z,1.20
2023-03-24T15:46:04.663Z,1.95
2023-03-24T15:48:47.127Z,1.20
2023-03-24T15:51:20.218Z,1.30
2023-03-24T15:53:59.354Z,1.30
2023-03-24T15:56:32.400Z,1.00
2023-03-24T15:59:13.709Z,1.10
2023-03-24T16:01:46.137Z,1.20
2023-03-24T16:04:20.889Z,1.23
2023-03-24T16:06:54.461Z,1.20
2023-03-24T16:09:38.171Z,1.20
2023-03-24T16:12:11.890Z,1.70
2023-03-24T16:17:16.897Z,1.90
2023-03-24T16:19:49.149Z,2.05
2023-03-24T16:22:21.356Z,2.40
2023-03-24T16:24:53.679Z,2.50
2023-03-24T16:27:25.880Z,2.10
2023-03-24T16:29:58.040Z,2.72
2023-03-24T16:32:30.283Z,3.78
2023-03-24T16:35:02.818Z,4.10
2023-03-24T16:37:35.412Z,3.67
2023-03-24T16:40:29.861Z,2.60
2023-03-24T16:43:02.546Z,2.00
2023-03-24T16:45:35.794Z,2.25
2023-03-24T16:48:09.536Z,2.58
2023-03-24T16:53:14.942Z,2.63
2023-03-24T16:55:48.063Z,2.67
2023-03-24T16:58:20.410Z,1.92
2023-03-24T17:00:53.671Z,2.97
2023-03-24T17:03:29.892Z,2.72
2023-03-24T17:06:03.734Z,3.22
2023-03-24T17:08:35.959Z,2.72
2023-03-24T17:11:10.071Z,1.67
2023-03-24T17:13:42.341Z,2.33
2023-03-24T17:16:17.875Z,2.25
2023-03-24T17:18:50.133Z,2.65
2023-03-24T17:21:23.172Z,3.00
2023-03-24T17:23:55.967Z,2.45
2023-03-24T17:26:29.708Z,2.20
2023-03-24T17:29:04.174Z,2.15
2023-03-24T17:31:37.357Z,2.95
2023-03-24T17:36:51.249Z,1.90
2023-03-24T17:39:24.045Z,2.58
2023-03-24T17:41:59.683Z,2.05
2023-03-24T17:44:34.009Z,2.08
2023-03-24T17:47:07.414Z,1.35
2023-03-24T17:49:39.836Z,1.48
2023-03-24T17:52:12.011Z,2.10
2023-03-24T17:54:45.899Z,1.98
2023-03-24T17:57:18.660Z,1.80
2023-03-24T17:59:52.546Z,2.35
2023-03-24T18:02:25.369Z,1.75
2023-03-24T18:04:59.043Z,1.60
2023-03-24T18:10:04.749Z,2.22
2023-03-24T18:12:37.365Z,2.72
2023-03-24T18:15:10.051Z,2.50
2023-03-24T18:17:42.806Z,2.17
2023-03-24T18:20:15.168Z,1.30
2023-03-24T18:22:47.694Z,1.65
2023-03-24T18:25:20.098Z,1.17
2023-03-24T18:27:52.600Z,1.60
2023-03-24T18:30:24.887Z,1.63
2023-03-24T18:33:02.287Z,1.42
2023-03-24T18:35:35.629Z,1.70
2023-03-24T18:38:08.839Z,1.55
2023-03-24T18:40:41.424Z,1.85
2023-03-24T18:43:14.028Z,2.10
2023-03-24T18:45:47.261Z,1.70
2023-03-24T18:48:20.184Z,1.95
2023-03-24T18:50:53.236Z,1.50
2023-03-24T18:53:25.430Z,1.80
2023-03-24T18:55:57.762Z,1.67
2023-03-24T18:58:30.226Z,1.60
2023-03-24T19:01:11.471Z,2.00
2023-03-24T19:03:44.998Z,1.95
2023-03-24T19:06:17.997Z,1.48
2023-03-24T19:08:52.028Z,2.30
2023-03-24T19:11:25.188Z,1.65
2023-03-24T19:13:57.609Z,1.65
2023-03-24T19:16:30.534Z,1.90
2023-03-24T19:19:03.507Z,2.15
2023-03-24T19:21:35.935Z,1.42
2023-03-24T19:24:08.911Z,1.65
2023-03-24T19:26:41.392Z,1.52
2023-03-24T19:29:13.669Z,1.80
2023-03-24T19:31:45.830Z,1.33
2023-03-24T19:34:18.973Z,1.45
2023-03-24T19:36:52.319Z,1.90
2023-03-24T19:39:26.441Z,1.90
2023-03-24T19:41:59.984Z,1.85
2023-03-24T19:47:04.881Z,1.88
2023-03-24T19:49:37.872Z,2.23
2023-03-24T19:52:10.560Z,3.45
2023-03-24T19:54:42.866Z,2.33
2023-03-24T19:57:15.938Z,1.90
2023-03-24T19:59:48.212Z,2.03
2023-03-24T20:02:21.684Z,2.17
2023-03-24T20:04:55.623Z,3.03
2023-03-24T20:07:29.557Z,2.10
2023-03-24T20:10:02.028Z,2.20
2023-03-24T20:12:34.363Z,2.70
2023-03-24T20:15:07.353Z,2.40
2023-03-24T20:17:40.818Z,2.20
2023-03-24T20:20:14.200Z,1.98
2023-03-24T20:22:49.117Z,1.52
2023-03-24T20:25:22.582Z,1.80
2023-03-24T20:30:31.429Z,1.45
2023-03-24T20:33:04.707Z,1.92
2023-03-24T20:35:45.242Z,1.00
2023-03-24T20:38:20.994Z,1.77
2023-03-24T20:41:11.649Z,1.30
2023-03-24T20:43:47.507Z,1.23
2023-03-24T20:46:20.727Z,1.50
2023-03-24T20:48:53.383Z,1.40
2023-03-24T20:51:26.397Z,1.40
2023-03-24T20:53:58.909Z,1.17
2023-03-24T20:56:32.050Z,1.40
2023-03-24T20:59:08.700Z,1.08
2023-03-24T21:01:43.698Z,1.20
2023-03-24T21:04:19.291Z,1.60
2023-03-24T21:06:58.085Z,1.33
2023-03-24T21:09:30.686Z,1.10
2023-03-24T21:12:06.765Z,1.43
2023-03-24T21:14:39.242Z,1.33
2023-03-24T21:17:11.573Z,1.65
2023-03-24T21:19:47.443Z,1.10
2023-03-24T21:22:20.868Z,1.38
2023-03-24T21:24:59.654Z,1.55
2023-03-24T21:27:32.914Z,1.33
2023-03-24T21:30:06.171Z,1.50
2023-03-24T21:32:38.729Z,1.30
2023-03-24T21:35:11.886Z,1.08
2023-03-24T21:37:45.933Z,1.13
2023-03-24T21:40:20.866Z,1.05
2023-03-24T21:42:54.062Z,1.48
2023-03-24T21:45:27.775Z,1.02
2023-03-24T21:50:39.232Z,1.23
2023-03-24T21:53:15.336Z,1.10
2023-03-24T21:56:04.957Z,1.00
2023-03-24T21:58:38.108Z,1.20
2023-03-24T22:01:10.615Z,1.40
2023-03-24T22:03:43.209Z,1.50
2023-03-24T22:06:15.824Z,1.90
2023-03-24T22:08:49.098Z,1.10
2023-03-24T22:11:21.410Z,1.17
2023-03-24T22:13:54.121Z,1.08
2023-03-24T22:16:26.909Z,1.37
2023-03-24T22:19:01.915Z,1.20
2023-03-24T22:21:34.334Z,1.23
2023-03-24T22:24:08.709Z,1.20
2023-03-24T22:26:41.073Z,1.52
2023-03-24T22:29:13.209Z,1.55
2023-03-24T22:31:45.711Z,1.10
2023-03-24T22:34:25.160Z,1.36
2023-03-24T22:36:57.287Z,1.50
2023-03-24T22:39:29.474Z,1.50
2023-03-24T22:42:01.943Z,1.50
2023-03-24T22:44:34.275Z,1.10
2023-03-24T22:47:06.784Z,1.40
2023-03-24T22:49:40.105Z,1.30
2023-03-24T22:52:12.256Z,1.05
2023-03-24T22:54:44.846Z,1.40
2023-03-24T22:57:18.900Z,1.30
2023-03-24T22:59:52.156Z,1.40
2023-03-24T23:02:27.539Z,1.33
2023-03-24T23:05:00.254Z,1.27
2023-03-24T23:07:32.855Z,1.25
2023-03-24T23:10:06.611Z,1.30
2023-03-24T23:12:39.339Z,1.23
2023-03-24T23:15:17.959Z,1.27
2023-03-24T23:17:51.747Z,1.15
2023-03-24T23:20:24.738Z,1.45
2023-03-24T23:22:57.830Z,1.73
2023-03-24T23:25:31.100Z,1.42
2023-03-24T23:28:03.402Z,1.70
2023-03-24T23:30:35.973Z,1.50
2023-03-24T23:33:08.493Z,1.40
2023-03-24T23:35:42.000Z,1.33
2023-03-24T23:38:14.378Z,1.73
2023-03-24T23:40:46.734Z,1.17
2023-03-24T23:43:19.145Z,1.17
2023-03-24T23:45:58.008Z,1.35
2023-03-24T23:48:31.791Z,1.23
2023-03-24T23:51:08.051Z,1.27
2023-03-24T23:53:41.024Z,0.65
2023-03-24T23:56:14.339Z,1.20
2023-03-24T23:58:46.490Z,1.10
